sensor_id;sensor_type;location;lat;lon;timestamp;P1;durP1;ratioP1;P2;durP2;ratioP2
44145;SDS011;29809;52.432;4.780;2023-03-09T00:01:34;3.42;;;2.15;;
44145;SDS011;29809;52.432;4.780;2023-03-09T00:04:00;2.70;;;2.50;;
44145;SDS011;29809;52.432;4.780;2023-03-09T00:06:25;2.55;;;2.40;;
44145;SDS011;29809;52.432;4.780;2023-03-09T00:08:51;2.78;;;2.58;;
44145;SDS011;29809;52.432;4.780;2023-03-09T00:11:16;2.90;;;2.70;;
44145;SDS011;29809;52.432;4.780;2023-03-09T00:13:49;2.78;;;2.58;;
44145;SDS011;29809;52.432;4.780;2023-03-09T00:16:16;2.60;;;2.40;;
44145;SDS011;29809;52.432;4.780;2023-03-09T00:18:41;3.15;;;2.85;;
44145;SDS011;29809;52.432;4.780;2023-03-09T00:21:06;2.58;;;2.38;;
44145;SDS011;29809;52.432;4.780;2023-03-09T00:23:32;2.20;;;2.00;;
44145;SDS011;29809;52.432;4.780;2023-03-09T00:26:04;2.20;;;2.00;;
44145;SDS011;29809;52.432;4.780;2023-03-09T00:28:29;2.63;;;2.25;;
44145;SDS011;29809;52.432;4.780;2023-03-09T00:30:58;2.38;;;2.17;;
44145;SDS011;29809;52.432;4.780;2023-03-09T00:33:24;2.40;;;2.20;;
44145;SDS011;29809;52.432;4.780;2023-03-09T00:35:49;2.45;;;2.25;;
44145;SDS011;29809;52.432;4.780;2023-03-09T00:38:14;2.88;;;2.65;;
44145;SDS011;29809;52.432;4.780;2023-03-09T00:40:39;2.20;;;2.00;;
44145;SDS011;29809;52.432;4.780;2023-03-09T00:43:05;2.45;;;2.25;;
44145;SDS011;29809;52.432;4.780;2023-03-09T00:45:30;2.03;;;1.92;;
44145;SDS011;29809;52.432;4.780;2023-03-09T00:47:55;2.42;;;2.22;;
44145;SDS011;29809;52.432;4.780;2023-03-09T00:50:20;2.45;;;2.25;;
44145;SDS011;29809;52.432;4.780;2023-03-09T00:52:45;2.30;;;2.10;;
44145;SDS011;29809;52.432;4.780;2023-03-09T00:55:11;2.30;;;2.10;;
44145;SDS011;29809;52.432;4.780;2023-03-09T00:57:36;1.90;;;1.80;;
44145;SDS011;29809;52.432;4.780;2023-03-09T01:00:01;2.38;;;2.17;;
44145;SDS011;29809;52.432;4.780;2023-03-09T01:02:29;2.00;;;1.90;;
44145;SDS011;29809;52.432;4.780;2023-03-09T01:04:54;2.10;;;1.95;;
44145;SDS011;29809;52.432;4.780;2023-03-09T01:07:19;2.10;;;1.90;;
44145;SDS011;29809;52.432;4.780;2023-03-09T01:09:46;1.88;;;1.77;;
44145;SDS011;29809;52.432;4.780;2023-03-09T01:12:11;2.45;;;2.25;;
44145;SDS011;29809;52.432;4.780;2023-03-09T01:14:36;2.35;;;2.15;;
44145;SDS011;29809;52.432;4.780;2023-03-09T01:17:01;1.90;;;1.80;;
44145;SDS011;29809;52.432;4.780;2023-03-09T01:19:27;2.15;;;2.00;;
44145;SDS011;29809;52.432;4.780;2023-03-09T01:21:52;4.88;;;2.22;;
44145;SDS011;29809;52.432;4.780;2023-03-09T01:24:18;2.10;;;1.90;;
44145;SDS011;29809;52.432;4.780;2023-03-09T01:26:43;1.70;;;1.60;;
44145;SDS011;29809;52.432;4.780;2023-03-09T01:29:08;2.20;;;2.00;;
44145;SDS011;29809;52.432;4.780;2023-03-09T01:31:33;2.17;;;1.98;;
44145;SDS011;29809;52.432;4.780;2023-03-09T01:33:58;2.10;;;1.90;;
44145;SDS011;29809;52.432;4.780;2023-03-09T01:36:27;2.30;;;2.10;;
44145;SDS011;29809;52.432;4.780;2023-03-09T01:38:52;1.95;;;1.85;;
44145;SDS011;29809;52.432;4.780;2023-03-09T01:41:18;2.00;;;1.90;;
44145;SDS011;29809;52.432;4.780;2023-03-09T01:43:44;1.95;;;1.85;;
44145;SDS011;29809;52.432;4.780;2023-03-09T01:48:49;1.90;;;1.80;;
44145;SDS011;29809;52.432;4.780;2023-03-09T01:51:16;1.90;;;1.80;;
44145;SDS011;29809;52.432;4.780;2023-03-09T01:53:41;2.30;;;2.10;;
44145;SDS011;29809;52.432;4.780;2023-03-09T01:56:07;1.80;;;1.70;;
44145;SDS011;29809;52.432;4.780;2023-03-09T01:58:33;3.00;;;2.38;;
44145;SDS011;29809;52.432;4.780;2023-03-09T02:00:58;2.17;;;1.98;;
44145;SDS011;29809;52.432;4.780;2023-03-09T02:03:28;1.70;;;1.60;;
44145;SDS011;29809;52.432;4.780;2023-03-09T02:06:09;1.55;;;1.45;;
44145;SDS011;29809;52.432;4.780;2023-03-09T02:08:38;1.67;;;1.58;;
44145;SDS011;29809;52.432;4.780;2023-03-09T02:11:05;2.00;;;1.90;;
44145;SDS011;29809;52.432;4.780;2023-03-09T02:13:32;2.05;;;1.85;;
44145;SDS011;29809;52.432;4.780;2023-03-09T02:16:07;3.15;;;1.52;;
44145;SDS011;29809;52.432;4.780;2023-03-09T02:18:33;5.63;;;1.97;;
44145;SDS011;29809;52.432;4.780;2023-03-09T02:23:34;2.03;;;1.83;;
44145;SDS011;29809;52.432;4.780;2023-03-09T02:26:08;1.93;;;1.70;;
44145;SDS011;29809;52.432;4.780;2023-03-09T02:28:35;1.77;;;1.67;;
44145;SDS011;29809;52.432;4.780;2023-03-09T02:31:00;1.63;;;1.52;;
44145;SDS011;29809;52.432;4.780;2023-03-09T02:33:26;1.80;;;1.70;;
44145;SDS011;29809;52.432;4.780;2023-03-09T02:35:55;1.80;;;1.70;;
44145;SDS011;29809;52.432;4.780;2023-03-09T02:38:21;2.20;;;2.03;;
44145;SDS011;29809;52.432;4.780;2023-03-09T02:40:46;2.10;;;2.00;;
44145;SDS011;29809;52.432;4.780;2023-03-09T02:43:12;3.30;;;2.03;;
44145;SDS011;29809;52.432;4.780;2023-03-09T02:45:37;1.90;;;1.80;;
44145;SDS011;29809;52.432;4.780;2023-03-09T02:48:03;1.65;;;1.55;;
44145;SDS011;29809;52.432;4.780;2023-03-09T02:50:28;2.10;;;2.00;;
44145;SDS011;29809;52.432;4.780;2023-03-09T02:52:53;1.80;;;1.70;;
44145;SDS011;29809;52.432;4.780;2023-03-09T02:55:19;2.20;;;1.58;;
44145;SDS011;29809;52.432;4.780;2023-03-09T02:57:44;1.70;;;1.60;;
44145;SDS011;29809;52.432;4.780;2023-03-09T03:00:10;1.63;;;1.52;;
44145;SDS011;29809;52.432;4.780;2023-03-09T03:02:36;1.65;;;1.55;;
44145;SDS011;29809;52.432;4.780;2023-03-09T03:05:01;1.85;;;1.75;;
44145;SDS011;29809;52.432;4.780;2023-03-09T03:07:26;1.80;;;1.70;;
44145;SDS011;29809;52.432;4.780;2023-03-09T03:09:52;1.57;;;1.47;;
44145;SDS011;29809;52.432;4.780;2023-03-09T03:12:17;1.70;;;1.60;;
44145;SDS011;29809;52.432;4.780;2023-03-09T03:14:43;1.50;;;1.40;;
44145;SDS011;29809;52.432;4.780;2023-03-09T03:17:08;1.20;;;1.10;;
44145;SDS011;29809;52.432;4.780;2023-03-09T03:19:33;1.50;;;1.40;;
44145;SDS011;29809;52.432;4.780;2023-03-09T03:21:59;1.50;;;1.40;;
44145;SDS011;29809;52.432;4.780;2023-03-09T03:24:24;1.05;;;1.05;;
44145;SDS011;29809;52.432;4.780;2023-03-09T03:26:49;1.60;;;1.50;;
44145;SDS011;29809;52.432;4.780;2023-03-09T03:29:17;1.80;;;1.40;;
44145;SDS011;29809;52.432;4.780;2023-03-09T03:31:43;1.50;;;1.40;;
44145;SDS011;29809;52.432;4.780;2023-03-09T03:34:08;1.50;;;1.40;;
44145;SDS011;29809;52.432;4.780;2023-03-09T03:36:33;1.77;;;1.67;;
44145;SDS011;29809;52.432;4.780;2023-03-09T03:38:58;1.80;;;1.70;;
44145;SDS011;29809;52.432;4.780;2023-03-09T03:41:24;1.87;;;1.30;;
44145;SDS011;29809;52.432;4.780;2023-03-09T03:43:49;1.43;;;1.33;;
44145;SDS011;29809;52.432;4.780;2023-03-09T03:46:14;1.13;;;1.13;;
44145;SDS011;29809;52.432;4.780;2023-03-09T03:48:39;1.37;;;1.27;;
44145;SDS011;29809;52.432;4.780;2023-03-09T03:51:06;1.70;;;1.60;;
44145;SDS011;29809;52.432;4.780;2023-03-09T03:53:31;1.38;;;1.27;;
44145;SDS011;29809;52.432;4.780;2023-03-09T03:55:57;1.50;;;1.37;;
44145;SDS011;29809;52.432;4.780;2023-03-09T03:58:22;1.48;;;1.38;;
44145;SDS011;29809;52.432;4.780;2023-03-09T04:00:47;1.40;;;1.30;;
44145;SDS011;29809;52.432;4.780;2023-03-09T04:03:13;1.40;;;1.30;;
44145;SDS011;29809;52.432;4.780;2023-03-09T04:05:38;1.70;;;1.60;;
44145;SDS011;29809;52.432;4.780;2023-03-09T04:08:03;1.40;;;1.30;;
44145;SDS011;29809;52.432;4.780;2023-03-09T04:10:28;1.40;;;1.30;;
44145;SDS011;29809;52.432;4.780;2023-03-09T04:12:54;1.53;;;1.43;;
44145;SDS011;29809;52.432;4.780;2023-03-09T04:15:19;1.83;;;1.70;;
44145;SDS011;29809;52.432;4.780;2023-03-09T04:17:44;1.50;;;1.40;;
44145;SDS011;29809;52.432;4.780;2023-03-09T04:20:12;1.53;;;1.43;;
44145;SDS011;29809;52.432;4.780;2023-03-09T04:22:37;1.83;;;1.73;;
44145;SDS011;29809;52.432;4.780;2023-03-09T04:25:03;1.50;;;1.40;;
44145;SDS011;29809;52.432;4.780;2023-03-09T04:27:28;2.00;;;1.80;;
44145;SDS011;29809;52.432;4.780;2023-03-09T04:29:53;1.50;;;1.40;;
44145;SDS011;29809;52.432;4.780;2023-03-09T04:32:18;1.58;;;1.48;;
44145;SDS011;29809;52.432;4.780;2023-03-09T04:34:44;1.70;;;1.60;;
44145;SDS011;29809;52.432;4.780;2023-03-09T04:37:10;1.87;;;1.77;;
44145;SDS011;29809;52.432;4.780;2023-03-09T04:39:35;1.55;;;1.45;;
44145;SDS011;29809;52.432;4.780;2023-03-09T04:42:01;1.63;;;1.53;;
44145;SDS011;29809;52.432;4.780;2023-03-09T04:44:27;1.70;;;1.60;;
44145;SDS011;29809;52.432;4.780;2023-03-09T04:46:52;1.70;;;1.60;;
44145;SDS011;29809;52.432;4.780;2023-03-09T04:49:17;1.80;;;1.57;;
44145;SDS011;29809;52.432;4.780;2023-03-09T04:51:42;1.80;;;1.70;;
44145;SDS011;29809;52.432;4.780;2023-03-09T04:54:08;2.53;;;1.50;;
44145;SDS011;29809;52.432;4.780;2023-03-09T04:56:33;1.67;;;1.58;;
44145;SDS011;29809;52.432;4.780;2023-03-09T04:58:58;2.57;;;1.40;;
44145;SDS011;29809;52.432;4.780;2023-03-09T05:01:23;2.70;;;2.08;;
44145;SDS011;29809;52.432;4.780;2023-03-09T05:03:49;2.40;;;1.77;;
44145;SDS011;29809;52.432;4.780;2023-03-09T05:06:14;1.90;;;1.80;;
44145;SDS011;29809;52.432;4.780;2023-03-09T05:08:39;3.03;;;1.97;;
44145;SDS011;29809;52.432;4.780;2023-03-09T05:11:05;2.55;;;1.92;;
44145;SDS011;29809;52.432;4.780;2023-03-09T05:13:30;1.70;;;1.60;;
44145;SDS011;29809;52.432;4.780;2023-03-09T05:15:55;2.30;;;2.10;;
44145;SDS011;29809;52.432;4.780;2023-03-09T05:18:20;2.67;;;1.90;;
44145;SDS011;29809;52.432;4.780;2023-03-09T05:20:46;2.43;;;2.30;;
44145;SDS011;29809;52.432;4.780;2023-03-09T05:23:11;2.00;;;1.90;;
44145;SDS011;29809;52.432;4.780;2023-03-09T05:25:36;2.03;;;1.90;;
44145;SDS011;29809;52.432;4.780;2023-03-09T05:28:01;2.45;;;2.20;;
44145;SDS011;29809;52.432;4.780;2023-03-09T05:30:27;3.35;;;2.30;;
44145;SDS011;29809;52.432;4.780;2023-03-09T05:32:53;2.30;;;2.10;;
44145;SDS011;29809;52.432;4.780;2023-03-09T05:35:18;2.90;;;2.13;;
44145;SDS011;29809;52.432;4.780;2023-03-09T05:37:44;2.25;;;2.10;;
44145;SDS011;29809;52.432;4.780;2023-03-09T05:40:10;2.45;;;2.25;;
44145;SDS011;29809;52.432;4.780;2023-03-09T05:42:36;2.43;;;2.23;;
44145;SDS011;29809;52.432;4.780;2023-03-09T05:45:01;3.25;;;2.40;;
44145;SDS011;29809;52.432;4.780;2023-03-09T05:47:28;2.50;;;2.30;;
44145;SDS011;29809;52.432;4.780;2023-03-09T05:49:54;5.20;;;2.38;;
44145;SDS011;29809;52.432;4.780;2023-03-09T05:52:19;4.70;;;2.20;;
44145;SDS011;29809;52.432;4.780;2023-03-09T05:54:44;2.67;;;2.30;;
44145;SDS011;29809;52.432;4.780;2023-03-09T05:57:10;2.20;;;2.00;;
44145;SDS011;29809;52.432;4.780;2023-03-09T05:59:35;2.30;;;2.10;;
44145;SDS011;29809;52.432;4.780;2023-03-09T06:02:00;2.97;;;2.42;;
44145;SDS011;29809;52.432;4.780;2023-03-09T06:04:26;2.58;;;2.38;;
44145;SDS011;29809;52.432;4.780;2023-03-09T06:06:51;2.43;;;2.23;;
44145;SDS011;29809;52.432;4.780;2023-03-09T06:09:16;57.58;;;14.73;;
44145;SDS011;29809;52.432;4.780;2023-03-09T06:11:41;111.75;;;29.25;;
44145;SDS011;29809;52.432;4.780;2023-03-09T06:14:07;81.45;;;23.52;;
44145;SDS011;29809;52.432;4.780;2023-03-09T06:16:33;59.05;;;21.17;;
44145;SDS011;29809;52.432;4.780;2023-03-09T06:18:58;65.00;;;19.98;;
44145;SDS011;29809;52.432;4.780;2023-03-09T06:21:23;63.40;;;19.63;;
44145;SDS011;29809;52.432;4.780;2023-03-09T06:23:49;56.80;;;17.45;;
44145;SDS011;29809;52.432;4.780;2023-03-09T06:26:17;56.90;;;17.30;;
44145;SDS011;29809;52.432;4.780;2023-03-09T06:28:42;43.65;;;15.85;;
44145;SDS011;29809;52.432;4.780;2023-03-09T06:31:11;42.70;;;15.37;;
44145;SDS011;29809;52.432;4.780;2023-03-09T06:33:37;33.13;;;12.95;;
44145;SDS011;29809;52.432;4.780;2023-03-09T06:36:02;37.17;;;12.70;;
44145;SDS011;29809;52.432;4.780;2023-03-09T06:38:28;37.58;;;14.27;;
44145;SDS011;29809;52.432;4.780;2023-03-09T06:40:53;29.02;;;12.93;;
44145;SDS011;29809;52.432;4.780;2023-03-09T06:43:19;34.17;;;12.13;;
44145;SDS011;29809;52.432;4.780;2023-03-09T06:45:44;32.27;;;11.73;;
44145;SDS011;29809;52.432;4.780;2023-03-09T06:48:10;24.25;;;10.50;;
44145;SDS011;29809;52.432;4.780;2023-03-09T06:50:35;25.33;;;10.75;;
44145;SDS011;29809;52.432;4.780;2023-03-09T06:53:00;27.20;;;10.73;;
44145;SDS011;29809;52.432;4.780;2023-03-09T06:55:25;18.45;;;10.13;;
44145;SDS011;29809;52.432;4.780;2023-03-09T06:57:51;21.77;;;9.80;;
44145;SDS011;29809;52.432;4.780;2023-03-09T07:00:16;21.25;;;10.05;;
44145;SDS011;29809;52.432;4.780;2023-03-09T07:02:41;19.47;;;10.03;;
44145;SDS011;29809;52.432;4.780;2023-03-09T07:05:07;17.50;;;9.43;;
44145;SDS011;29809;52.432;4.780;2023-03-09T07:07:32;15.43;;;9.10;;
44145;SDS011;29809;52.432;4.780;2023-03-09T07:09:58;11.13;;;5.80;;
44145;SDS011;29809;52.432;4.780;2023-03-09T07:12:23;13.10;;;6.90;;
44145;SDS011;29809;52.432;4.780;2023-03-09T07:14:48;13.70;;;7.13;;
44145;SDS011;29809;52.432;4.780;2023-03-09T07:17:13;14.07;;;7.70;;
44145;SDS011;29809;52.432;4.780;2023-03-09T07:19:39;12.20;;;6.97;;
44145;SDS011;29809;52.432;4.780;2023-03-09T07:22:05;13.50;;;7.43;;
44145;SDS011;29809;52.432;4.780;2023-03-09T07:24:33;11.70;;;6.23;;
44145;SDS011;29809;52.432;4.780;2023-03-09T07:26:58;10.50;;;5.93;;
44145;SDS011;29809;52.432;4.780;2023-03-09T07:29:23;12.05;;;5.82;;
44145;SDS011;29809;52.432;4.780;2023-03-09T07:31:48;15.80;;;6.93;;
44145;SDS011;29809;52.432;4.780;2023-03-09T07:34:14;8.03;;;5.33;;
44145;SDS011;29809;52.432;4.780;2023-03-09T07:36:39;9.30;;;6.00;;
44145;SDS011;29809;52.432;4.780;2023-03-09T07:39:04;7.60;;;5.83;;
44145;SDS011;29809;52.432;4.780;2023-03-09T07:41:30;12.80;;;6.20;;
44145;SDS011;29809;52.432;4.780;2023-03-09T07:43:57;6.60;;;5.93;;
44145;SDS011;29809;52.432;4.780;2023-03-09T07:46:22;8.33;;;6.10;;
44145;SDS011;29809;52.432;4.780;2023-03-09T07:48:47;7.67;;;5.93;;
44145;SDS011;29809;52.432;4.780;2023-03-09T07:51:13;7.03;;;5.50;;
44145;SDS011;29809;52.432;4.780;2023-03-09T07:53:39;8.27;;;6.00;;
44145;SDS011;29809;52.432;4.780;2023-03-09T07:56:06;6.77;;;5.63;;
44145;SDS011;29809;52.432;4.780;2023-03-09T07:58:32;7.57;;;6.03;;
44145;SDS011;29809;52.432;4.780;2023-03-09T08:00:57;7.97;;;5.73;;
44145;SDS011;29809;52.432;4.780;2023-03-09T08:03:23;7.97;;;5.40;;
44145;SDS011;29809;52.432;4.780;2023-03-09T08:05:48;8.10;;;5.93;;
44145;SDS011;29809;52.432;4.780;2023-03-09T08:08:15;6.47;;;5.57;;
44145;SDS011;29809;52.432;4.780;2023-03-09T08:10:40;8.17;;;5.40;;
44145;SDS011;29809;52.432;4.780;2023-03-09T08:13:11;6.33;;;5.67;;
44145;SDS011;29809;52.432;4.780;2023-03-09T08:15:36;6.90;;;5.53;;
44145;SDS011;29809;52.432;4.780;2023-03-09T08:18:01;8.00;;;5.30;;
44145;SDS011;29809;52.432;4.780;2023-03-09T08:20:26;6.60;;;5.53;;
44145;SDS011;29809;52.432;4.780;2023-03-09T08:22:51;5.63;;;5.13;;
44145;SDS011;29809;52.432;4.780;2023-03-09T08:25:17;10.60;;;5.10;;
44145;SDS011;29809;52.432;4.780;2023-03-09T08:27:43;6.80;;;5.53;;
44145;SDS011;29809;52.432;4.780;2023-03-09T08:30:09;6.67;;;5.20;;
44145;SDS011;29809;52.432;4.780;2023-03-09T08:32:34;6.03;;;5.03;;
44145;SDS011;29809;52.432;4.780;2023-03-09T08:35:00;5.90;;;5.40;;
44145;SDS011;29809;52.432;4.780;2023-03-09T08:37:25;7.10;;;4.97;;
44145;SDS011;29809;52.432;4.780;2023-03-09T08:39:51;5.77;;;5.27;;
44145;SDS011;29809;52.432;4.780;2023-03-09T08:42:16;5.70;;;4.63;;
44145;SDS011;29809;52.432;4.780;2023-03-09T08:44:42;6.60;;;5.10;;
44145;SDS011;29809;52.432;4.780;2023-03-09T08:47:07;6.00;;;5.03;;
44145;SDS011;29809;52.432;4.780;2023-03-09T08:49:32;6.10;;;4.93;;
44145;SDS011;29809;52.432;4.780;2023-03-09T08:51:58;6.73;;;4.77;;
44145;SDS011;29809;52.432;4.780;2023-03-09T08:54:23;5.87;;;5.27;;
44145;SDS011;29809;52.432;4.780;2023-03-09T08:56:48;5.20;;;4.70;;
44145;SDS011;29809;52.432;4.780;2023-03-09T08:59:13;6.63;;;4.78;;
44145;SDS011;29809;52.432;4.780;2023-03-09T09:01:38;5.88;;;5.13;;
44145;SDS011;29809;52.432;4.780;2023-03-09T09:04:04;6.43;;;4.57;;
44145;SDS011;29809;52.432;4.780;2023-03-09T09:06:29;6.27;;;5.03;;
44145;SDS011;29809;52.432;4.780;2023-03-09T09:08:54;5.17;;;4.73;;
44145;SDS011;29809;52.432;4.780;2023-03-09T09:11:20;5.13;;;4.57;;
44145;SDS011;29809;52.432;4.780;2023-03-09T09:13:45;4.93;;;4.30;;
44145;SDS011;29809;52.432;4.780;2023-03-09T09:16:11;5.03;;;4.53;;
44145;SDS011;29809;52.432;4.780;2023-03-09T09:18:37;5.17;;;4.50;;
44145;SDS011;29809;52.432;4.780;2023-03-09T09:21:02;4.57;;;4.17;;
44145;SDS011;29809;52.432;4.780;2023-03-09T09:23:28;4.33;;;3.93;;
44145;SDS011;29809;52.432;4.780;2023-03-09T09:25:54;6.50;;;4.53;;
44145;SDS011;29809;52.432;4.780;2023-03-09T09:28:19;5.43;;;4.93;;
44145;SDS011;29809;52.432;4.780;2023-03-09T09:30:44;4.73;;;4.27;;
44145;SDS011;29809;52.432;4.780;2023-03-09T09:33:09;5.00;;;4.50;;
44145;SDS011;29809;52.432;4.780;2023-03-09T09:35:36;4.97;;;4.47;;
44145;SDS011;29809;52.432;4.780;2023-03-09T09:38:01;4.70;;;4.30;;
44145;SDS011;29809;52.432;4.780;2023-03-09T09:40:27;4.30;;;3.90;;
44145;SDS011;29809;52.432;4.780;2023-03-09T09:42:53;4.57;;;4.17;;
44145;SDS011;29809;52.432;4.780;2023-03-09T09:45:27;5.50;;;4.37;;
44145;SDS011;29809;52.432;4.780;2023-03-09T09:47:53;5.57;;;3.93;;
44145;SDS011;29809;52.432;4.780;2023-03-09T09:50:19;4.57;;;4.17;;
44145;SDS011;29809;52.432;4.780;2023-03-09T09:52:57;4.60;;;4.20;;
44145;SDS011;29809;52.432;4.780;2023-03-09T09:55:37;5.20;;;4.70;;
44145;SDS011;29809;52.432;4.780;2023-03-09T09:58:12;4.33;;;3.93;;
44145;SDS011;29809;52.432;4.780;2023-03-09T10:00:44;4.73;;;4.27;;
44145;SDS011;29809;52.432;4.780;2023-03-09T10:05:56;4.33;;;3.93;;
44145;SDS011;29809;52.432;4.780;2023-03-09T10:08:36;4.23;;;3.83;;
44145;SDS011;29809;52.432;4.780;2023-03-09T10:11:44;3.73;;;3.43;;
44145;SDS011;29809;52.432;4.780;2023-03-09T10:13:53;4.70;;;4.00;;
44145;SDS011;29809;52.432;4.780;2023-03-09T10:16:26;4.70;;;4.30;;
44145;SDS011;29809;52.432;4.780;2023-03-09T10:18:54;3.80;;;3.50;;
44145;SDS011;29809;52.432;4.780;2023-03-09T10:21:25;4.60;;;4.20;;
44145;SDS011;29809;52.432;4.780;2023-03-09T10:23:52;4.27;;;3.87;;
44145;SDS011;29809;52.432;4.780;2023-03-09T10:26:21;4.23;;;3.83;;
44145;SDS011;29809;52.432;4.780;2023-03-09T10:28:50;4.43;;;4.13;;
44145;SDS011;29809;52.432;4.780;2023-03-09T10:34:05;4.30;;;3.87;;
44145;SDS011;29809;52.432;4.780;2023-03-09T10:36:34;4.13;;;3.80;;
44145;SDS011;29809;52.432;4.780;2023-03-09T10:39:04;4.53;;;4.13;;
44145;SDS011;29809;52.432;4.780;2023-03-09T10:41:34;4.27;;;3.63;;
44145;SDS011;29809;52.432;4.780;2023-03-09T10:44:00;4.07;;;3.78;;
44145;SDS011;29809;52.432;4.780;2023-03-09T10:46:26;3.70;;;3.40;;
44145;SDS011;29809;52.432;4.780;2023-03-09T10:51:36;4.13;;;3.73;;
44145;SDS011;29809;52.432;4.780;2023-03-09T10:57:03;3.90;;;3.57;;
44145;SDS011;29809;52.432;4.780;2023-03-09T10:59:53;3.50;;;3.20;;
44145;SDS011;29809;52.432;4.780;2023-03-09T11:02:29;3.97;;;3.63;;
44145;SDS011;29809;52.432;4.780;2023-03-09T11:04:55;3.73;;;3.40;;
44145;SDS011;29809;52.432;4.780;2023-03-09T11:07:22;4.27;;;3.73;;
44145;SDS011;29809;52.432;4.780;2023-03-09T11:09:50;4.37;;;4.03;;
44145;SDS011;29809;52.432;4.780;2023-03-09T11:12:22;4.10;;;3.50;;
44145;SDS011;29809;52.432;4.780;2023-03-09T11:14:51;4.33;;;3.93;;
44145;SDS011;29809;52.432;4.780;2023-03-09T11:17:28;4.50;;;4.10;;
44145;SDS011;29809;52.432;4.780;2023-03-09T11:23:26;4.10;;;3.80;;
44145;SDS011;29809;52.432;4.780;2023-03-09T11:25:54;3.43;;;3.13;;
44145;SDS011;29809;52.432;4.780;2023-03-09T11:31:09;4.13;;;3.83;;
44145;SDS011;29809;52.432;4.780;2023-03-09T11:33:35;3.77;;;3.47;;
44145;SDS011;29809;52.432;4.780;2023-03-09T11:36:01;3.70;;;3.40;;
44145;SDS011;29809;52.432;4.780;2023-03-09T11:38:28;4.40;;;4.00;;
44145;SDS011;29809;52.432;4.780;2023-03-09T11:41:05;4.00;;;3.60;;
44145;SDS011;29809;52.432;4.780;2023-03-09T11:43:34;3.73;;;3.43;;
44145;SDS011;29809;52.432;4.780;2023-03-09T11:46:01;4.23;;;3.83;;
44145;SDS011;29809;52.432;4.780;2023-03-09T11:49:13;3.93;;;3.63;;
44145;SDS011;29809;52.432;4.780;2023-03-09T11:51:20;4.00;;;3.60;;
44145;SDS011;29809;52.432;4.780;2023-03-09T11:56:29;4.07;;;3.67;;
44145;SDS011;29809;52.432;4.780;2023-03-09T11:58:57;4.00;;;3.70;;
44145;SDS011;29809;52.432;4.780;2023-03-09T12:01:25;3.70;;;3.40;;
44145;SDS011;29809;52.432;4.780;2023-03-09T12:03:56;4.03;;;3.73;;
44145;SDS011;29809;52.432;4.780;2023-03-09T12:06:41;3.80;;;3.50;;
44145;SDS011;29809;52.432;4.780;2023-03-09T12:09:16;3.73;;;3.33;;
44145;SDS011;29809;52.432;4.780;2023-03-09T12:11:47;4.10;;;3.70;;
44145;SDS011;29809;52.432;4.780;2023-03-09T12:14:18;4.47;;;3.90;;
44145;SDS011;29809;52.432;4.780;2023-03-09T12:16:45;3.80;;;3.50;;
44145;SDS011;29809;52.432;4.780;2023-03-09T12:19:13;3.57;;;3.27;;
44145;SDS011;29809;52.432;4.780;2023-03-09T12:21:40;3.77;;;3.47;;
44145;SDS011;29809;52.432;4.780;2023-03-09T12:27:29;4.67;;;4.27;;
44145;SDS011;29809;52.432;4.780;2023-03-09T12:29:54;4.40;;;3.70;;
44145;SDS011;29809;52.432;4.780;2023-03-09T12:34:52;4.40;;;4.00;;
44145;SDS011;29809;52.432;4.780;2023-03-09T12:40:29;4.07;;;3.77;;
44145;SDS011;29809;52.432;4.780;2023-03-09T12:42:45;4.00;;;3.70;;
44145;SDS011;29809;52.432;4.780;2023-03-09T12:47:36;3.93;;;3.63;;
44145;SDS011;29809;52.432;4.780;2023-03-09T12:50:20;4.00;;;3.70;;
44145;SDS011;29809;52.432;4.780;2023-03-09T12:55:21;4.30;;;4.00;;
44145;SDS011;29809;52.432;4.780;2023-03-09T12:57:47;4.07;;;3.77;;
44145;SDS011;29809;52.432;4.780;2023-03-09T13:00:27;4.40;;;4.03;;
44145;SDS011;29809;52.432;4.780;2023-03-09T13:03:04;4.27;;;3.93;;
44145;SDS011;29809;52.432;4.780;2023-03-09T13:05:52;3.85;;;3.55;;
44145;SDS011;29809;52.432;4.780;2023-03-09T13:13:40;4.37;;;3.97;;
44145;SDS011;29809;52.432;4.780;2023-03-09T13:18:49;4.37;;;3.97;;
44145;SDS011;29809;52.432;4.780;2023-03-09T13:23:58;4.37;;;3.97;;
44145;SDS011;29809;52.432;4.780;2023-03-09T13:26:24;4.13;;;3.80;;
44145;SDS011;29809;52.432;4.780;2023-03-09T13:28:49;4.83;;;3.80;;
44145;SDS011;29809;52.432;4.780;2023-03-09T13:31:23;4.70;;;3.50;;
44145;SDS011;29809;52.432;4.780;2023-03-09T13:33:51;4.77;;;4.37;;
44145;SDS011;29809;52.432;4.780;2023-03-09T13:36:18;4.27;;;3.87;;
44145;SDS011;29809;52.432;4.780;2023-03-09T13:38:48;3.87;;;3.57;;
44145;SDS011;29809;52.432;4.780;2023-03-09T13:41:18;3.80;;;3.50;;
44145;SDS011;29809;52.432;4.780;2023-03-09T13:43:45;4.53;;;4.13;;
44145;SDS011;29809;52.432;4.780;2023-03-09T13:48:59;4.60;;;4.20;;
44145;SDS011;29809;52.432;4.780;2023-03-09T13:51:46;3.93;;;3.63;;
44145;SDS011;29809;52.432;4.780;2023-03-09T13:56:56;4.40;;;4.00;;
44145;SDS011;29809;52.432;4.780;2023-03-09T13:59:21;4.30;;;3.90;;
44145;SDS011;29809;52.432;4.780;2023-03-09T14:01:46;4.20;;;3.80;;
44145;SDS011;29809;52.432;4.780;2023-03-09T14:04:13;4.13;;;3.73;;
44145;SDS011;29809;52.432;4.780;2023-03-09T14:06:40;3.87;;;3.57;;
44145;SDS011;29809;52.432;4.780;2023-03-09T14:09:16;4.43;;;4.03;;
44145;SDS011;29809;52.432;4.780;2023-03-09T14:11:43;4.30;;;3.90;;
44145;SDS011;29809;52.432;4.780;2023-03-09T14:14:12;4.30;;;3.90;;
44145;SDS011;29809;52.432;4.780;2023-03-09T14:16:39;3.53;;;3.23;;
44145;SDS011;29809;52.432;4.780;2023-03-09T14:19:13;4.10;;;3.77;;
44145;SDS011;29809;52.432;4.780;2023-03-09T14:21:40;4.10;;;3.80;;
44145;SDS011;29809;52.432;4.780;2023-03-09T14:26:34;4.60;;;4.20;;
44145;SDS011;29809;52.432;4.780;2023-03-09T14:29:01;4.00;;;3.70;;
44145;SDS011;29809;52.432;4.780;2023-03-09T14:31:27;3.83;;;3.53;;
44145;SDS011;29809;52.432;4.780;2023-03-09T14:36:21;4.60;;;4.20;;
44145;SDS011;29809;52.432;4.780;2023-03-09T14:38:50;4.13;;;3.83;;
44145;SDS011;29809;52.432;4.780;2023-03-09T14:41:18;4.27;;;3.93;;
44145;SDS011;29809;52.432;4.780;2023-03-09T14:43:44;3.90;;;3.60;;
44145;SDS011;29809;52.432;4.780;2023-03-09T14:46:16;3.90;;;3.57;;
44145;SDS011;29809;52.432;4.780;2023-03-09T14:48:49;4.03;;;3.67;;
44145;SDS011;29809;52.432;4.780;2023-03-09T14:51:24;4.23;;;3.83;;
44145;SDS011;29809;52.432;4.780;2023-03-09T14:53:51;4.20;;;3.80;;
44145;SDS011;29809;52.432;4.780;2023-03-09T14:56:16;3.90;;;3.60;;
44145;SDS011;29809;52.432;4.780;2023-03-09T14:58:41;3.80;;;3.40;;
44145;SDS011;29809;52.432;4.780;2023-03-09T15:01:07;4.27;;;3.87;;
44145;SDS011;29809;52.432;4.780;2023-03-09T15:03:32;4.10;;;3.80;;
44145;SDS011;29809;52.432;4.780;2023-03-09T15:05:58;4.00;;;3.70;;
44145;SDS011;29809;52.432;4.780;2023-03-09T15:08:23;4.20;;;3.80;;
44145;SDS011;29809;52.432;4.780;2023-03-09T15:10:50;3.70;;;3.40;;
44145;SDS011;29809;52.432;4.780;2023-03-09T15:13:16;4.47;;;4.10;;
44145;SDS011;29809;52.432;4.780;2023-03-09T15:15:41;4.00;;;3.70;;
44145;SDS011;29809;52.432;4.780;2023-03-09T15:18:07;3.87;;;3.57;;
44145;SDS011;29809;52.432;4.780;2023-03-09T15:20:32;4.07;;;3.67;;
44145;SDS011;29809;52.432;4.780;2023-03-09T15:22:57;3.97;;;3.60;;
44145;SDS011;29809;52.432;4.780;2023-03-09T15:25:22;3.67;;;3.37;;
44145;SDS011;29809;52.432;4.780;2023-03-09T15:27:47;4.17;;;3.77;;
44145;SDS011;29809;52.432;4.780;2023-03-09T15:30:14;3.77;;;3.47;;
44145;SDS011;29809;52.432;4.780;2023-03-09T15:32:40;4.30;;;3.90;;
44145;SDS011;29809;52.432;4.780;2023-03-09T15:35:06;3.90;;;3.60;;
44145;SDS011;29809;52.432;4.780;2023-03-09T15:37:31;3.90;;;3.37;;
44145;SDS011;29809;52.432;4.780;2023-03-09T15:39:56;3.83;;;3.53;;
44145;SDS011;29809;52.432;4.780;2023-03-09T15:42:21;3.30;;;3.10;;
44145;SDS011;29809;52.432;4.780;2023-03-09T15:44:47;4.30;;;3.90;;